sensor_id;sensor_type;location;lat;lon;timestamp;P1;durP1;ratioP1;P2;durP2;ratioP2
38805;SDS011;25635;51.146;17.162;2023-02-01T00:00:15;3.20;;;1.00;;
38805;SDS011;25635;51.146;17.162;2023-02-01T00:03:02;5.30;;;1.40;;
38805;SDS011;25635;51.146;17.162;2023-02-01T00:05:28;5.60;;;1.40;;
38805;SDS011;25635;51.146;17.162;2023-02-01T00:07:54;6.90;;;1.50;;
38805;SDS011;25635;51.146;17.162;2023-02-01T00:10:20;5.80;;;1.30;;
38805;SDS011;25635;51.146;17.162;2023-02-01T00:12:46;5.50;;;1.60;;
38805;SDS011;25635;51.146;17.162;2023-02-01T00:15:12;5.60;;;1.50;;
38805;SDS011;25635;51.146;17.162;2023-02-01T00:17:37;3.90;;;1.20;;
38805;SDS011;25635;51.146;17.162;2023-02-01T00:20:04;4.80;;;1.30;;
38805;SDS011;25635;51.146;17.162;2023-02-01T00:22:30;4.80;;;1.20;;
38805;SDS011;25635;51.146;17.162;2023-02-01T00:24:56;3.50;;;1.00;;
38805;SDS011;25635;51.146;17.162;2023-02-01T00:27:22;2.90;;;1.00;;
38805;SDS011;25635;51.146;17.162;2023-02-01T00:29:49;4.00;;;1.10;;
38805;SDS011;25635;51.146;17.162;2023-02-01T00:32:22;5.70;;;1.00;;
38805;SDS011;25635;51.146;17.162;2023-02-01T00:34:54;5.40;;;1.20;;
38805;SDS011;25635;51.146;17.162;2023-02-01T00:37:20;5.70;;;1.30;;
38805;SDS011;25635;51.146;17.162;2023-02-01T00:39:47;5.70;;;1.10;;
38805;SDS011;25635;51.146;17.162;2023-02-01T00:42:13;5.60;;;1.30;;
38805;SDS011;25635;51.146;17.162;2023-02-01T00:44:39;3.90;;;1.10;;
38805;SDS011;25635;51.146;17.162;2023-02-01T00:47:05;6.00;;;1.50;;
38805;SDS011;25635;51.146;17.162;2023-02-01T00:49:31;5.60;;;1.50;;
38805;SDS011;25635;51.146;17.162;2023-02-01T00:51:58;5.70;;;1.80;;
38805;SDS011;25635;51.146;17.162;2023-02-01T00:54:23;5.00;;;1.80;;
38805;SDS011;25635;51.146;17.162;2023-02-01T00:56:50;5.90;;;2.00;;
38805;SDS011;25635;51.146;17.162;2023-02-01T00:59:16;6.00;;;1.60;;
38805;SDS011;25635;51.146;17.162;2023-02-01T01:01:42;6.10;;;1.40;;
38805;SDS011;25635;51.146;17.162;2023-02-01T01:04:08;6.40;;;1.60;;
38805;SDS011;25635;51.146;17.162;2023-02-01T01:06:34;7.40;;;2.10;;
38805;SDS011;25635;51.146;17.162;2023-02-01T01:09:02;7.00;;;2.30;;
38805;SDS011;25635;51.146;17.162;2023-02-01T01:11:31;7.50;;;1.70;;
38805;SDS011;25635;51.146;17.162;2023-02-01T01:13:59;6.20;;;1.40;;
38805;SDS011;25635;51.146;17.162;2023-02-01T01:16:27;8.80;;;1.90;;
38805;SDS011;25635;51.146;17.162;2023-02-01T01:18:55;5.10;;;1.50;;
38805;SDS011;25635;51.146;17.162;2023-02-01T01:21:22;4.80;;;1.30;;
38805;SDS011;25635;51.146;17.162;2023-02-01T01:23:48;8.00;;;1.40;;
38805;SDS011;25635;51.146;17.162;2023-02-01T01:26:15;6.90;;;1.70;;
38805;SDS011;25635;51.146;17.162;2023-02-01T01:28:43;6.30;;;1.60;;
38805;SDS011;25635;51.146;17.162;2023-02-01T01:31:09;5.10;;;2.20;;
38805;SDS011;25635;51.146;17.162;2023-02-01T01:33:43;5.90;;;1.60;;
38805;SDS011;25635;51.146;17.162;2023-02-01T01:36:09;7.60;;;1.60;;
38805;SDS011;25635;51.146;17.162;2023-02-01T01:38:37;6.40;;;1.80;;
38805;SDS011;25635;51.146;17.162;2023-02-01T01:41:04;5.00;;;1.20;;
38805;SDS011;25635;51.146;17.162;2023-02-01T01:43:47;7.50;;;1.40;;
38805;SDS011;25635;51.146;17.162;2023-02-01T01:47:02;4.10;;;1.10;;
38805;SDS011;25635;51.146;17.162;2023-02-01T01:49:36;7.50;;;1.40;;
38805;SDS011;25635;51.146;17.162;2023-02-01T01:52:04;6.00;;;1.10;;
38805;SDS011;25635;51.146;17.162;2023-02-01T01:54:33;3.50;;;1.20;;
38805;SDS011;25635;51.146;17.162;2023-02-01T01:57:06;5.00;;;1.10;;
38805;SDS011;25635;51.146;17.162;2023-02-01T01:59:40;4.90;;;0.90;;
38805;SDS011;25635;51.146;17.162;2023-02-01T02:02:12;6.00;;;1.00;;
38805;SDS011;25635;51.146;17.162;2023-02-01T02:04:38;3.80;;;0.90;;
38805;SDS011;25635;51.146;17.162;2023-02-01T02:07:09;3.70;;;1.10;;
38805;SDS011;25635;51.146;17.162;2023-02-01T02:09:40;3.40;;;1.20;;
38805;SDS011;25635;51.146;17.162;2023-02-01T02:12:09;5.30;;;1.30;;
38805;SDS011;25635;51.146;17.162;2023-02-01T02:14:35;3.50;;;1.40;;
38805;SDS011;25635;51.146;17.162;2023-02-01T02:19:34;4.50;;;1.30;;
38805;SDS011;25635;51.146;17.162;2023-02-01T02:36:15;7.80;;;1.40;;
38805;SDS011;25635;51.146;17.162;2023-02-01T02:39:02;6.60;;;1.70;;
38805;SDS011;25635;51.146;17.162;2023-02-01T02:41:44;6.50;;;1.70;;
38805;SDS011;25635;51.146;17.162;2023-02-01T02:47:54;8.60;;;2.30;;
38805;SDS011;25635;51.146;17.162;2023-02-01T02:50:38;7.20;;;2.20;;
38805;SDS011;25635;51.146;17.162;2023-02-01T02:53:43;5.40;;;1.60;;
38805;SDS011;25635;51.146;17.162;2023-02-01T02:56:42;12.20;;;2.30;;
38805;SDS011;25635;51.146;17.162;2023-02-01T02:59:27;10.80;;;2.50;;
38805;SDS011;25635;51.146;17.162;2023-02-01T03:02:15;6.90;;;1.80;;
38805;SDS011;25635;51.146;17.162;2023-02-01T03:05:01;8.50;;;2.30;;
38805;SDS011;25635;51.146;17.162;2023-02-01T03:10:30;8.20;;;2.50;;
38805;SDS011;25635;51.146;17.162;2023-02-01T03:13:03;11.60;;;2.80;;
38805;SDS011;25635;51.146;17.162;2023-02-01T03:15:54;12.10;;;2.80;;
38805;SDS011;25635;51.146;17.162;2023-02-01T03:21:18;12.40;;;2.50;;
38805;SDS011;25635;51.146;17.162;2023-02-01T03:24:13;9.40;;;2.00;;
38805;SDS011;25635;51.146;17.162;2023-02-01T03:26:49;11.00;;;2.40;;
38805;SDS011;25635;51.146;17.162;2023-02-01T03:29:25;10.40;;;2.00;;
38805;SDS011;25635;51.146;17.162;2023-02-01T03:31:57;8.00;;;2.20;;
38805;SDS011;25635;51.146;17.162;2023-02-01T03:34:24;9.20;;;2.00;;
38805;SDS011;25635;51.146;17.162;2023-02-01T03:36:51;12.00;;;2.80;;
38805;SDS011;25635;51.146;17.162;2023-02-01T03:39:31;12.90;;;2.60;;
38805;SDS011;25635;51.146;17.162;2023-02-01T03:42:20;14.80;;;3.30;;
38805;SDS011;25635;51.146;17.162;2023-02-01T03:44:55;14.40;;;2.60;;
38805;SDS011;25635;51.146;17.162;2023-02-01T03:47:30;10.50;;;2.00;;
38805;SDS011;25635;51.146;17.162;2023-02-01T03:50:02;8.90;;;2.20;;
38805;SDS011;25635;51.146;17.162;2023-02-01T03:52:32;13.50;;;2.40;;
38805;SDS011;25635;51.146;17.162;2023-02-01T03:55:10;14.00;;;2.60;;
38805;SDS011;25635;51.146;17.162;2023-02-01T03:57:43;7.70;;;2.20;;
38805;SDS011;25635;51.146;17.162;2023-02-01T04:00:18;8.30;;;2.40;;
38805;SDS011;25635;51.146;17.162;2023-02-01T04:02:49;12.90;;;2.60;;
38805;SDS011;25635;51.146;17.162;2023-02-01T04:05:15;11.00;;;2.70;;
38805;SDS011;25635;51.146;17.162;2023-02-01T04:07:42;13.30;;;2.50;;
38805;SDS011;25635;51.146;17.162;2023-02-01T04:10:09;12.50;;;2.70;;
38805;SDS011;25635;51.146;17.162;2023-02-01T04:12:36;10.80;;;2.90;;
38805;SDS011;25635;51.146;17.162;2023-02-01T04:15:02;12.40;;;2.60;;
38805;SDS011;25635;51.146;17.162;2023-02-01T04:17:29;10.80;;;2.50;;
38805;SDS011;25635;51.146;17.162;2023-02-01T04:19:55;14.10;;;3.50;;
38805;SDS011;25635;51.146;17.162;2023-02-01T04:22:21;11.00;;;3.10;;
38805;SDS011;25635;51.146;17.162;2023-02-01T04:24:47;14.40;;;3.80;;
38805;SDS011;25635;51.146;17.162;2023-02-01T04:27:14;19.20;;;4.60;;
38805;SDS011;25635;51.146;17.162;2023-02-01T04:29:40;15.50;;;3.80;;
38805;SDS011;25635;51.146;17.162;2023-02-01T04:32:06;12.50;;;3.20;;
38805;SDS011;25635;51.146;17.162;2023-02-01T04:34:33;21.60;;;4.20;;
38805;SDS011;25635;51.146;17.162;2023-02-01T04:36:59;10.40;;;2.70;;
38805;SDS011;25635;51.146;17.162;2023-02-01T04:39:25;9.20;;;2.60;;
38805;SDS011;25635;51.146;17.162;2023-02-01T04:41:51;9.60;;;2.70;;
38805;SDS011;25635;51.146;17.162;2023-02-01T04:44:17;10.60;;;2.70;;
38805;SDS011;25635;51.146;17.162;2023-02-01T04:46:44;9.70;;;2.20;;
38805;SDS011;25635;51.146;17.162;2023-02-01T04:49:12;9.90;;;2.60;;
38805;SDS011;25635;51.146;17.162;2023-02-01T04:51:40;9.80;;;2.30;;
38805;SDS011;25635;51.146;17.162;2023-02-01T04:54:07;11.40;;;2.60;;
38805;SDS011;25635;51.146;17.162;2023-02-01T04:56:33;11.50;;;2.60;;
38805;SDS011;25635;51.146;17.162;2023-02-01T04:59:03;12.30;;;2.30;;
38805;SDS011;25635;51.146;17.162;2023-02-01T05:01:30;10.80;;;2.50;;
38805;SDS011;25635;51.146;17.162;2023-02-01T05:03:56;11.10;;;2.50;;
38805;SDS011;25635;51.146;17.162;2023-02-01T05:06:23;10.40;;;3.00;;
38805;SDS011;25635;51.146;17.162;2023-02-01T05:08:49;10.80;;;2.40;;
38805;SDS011;25635;51.146;17.162;2023-02-01T05:11:15;14.70;;;3.10;;
38805;SDS011;25635;51.146;17.162;2023-02-01T05:14:00;11.60;;;2.50;;
38805;SDS011;25635;51.146;17.162;2023-02-01T05:16:26;8.90;;;2.20;;
38805;SDS011;25635;51.146;17.162;2023-02-01T05:18:52;10.80;;;2.70;;
38805;SDS011;25635;51.146;17.162;2023-02-01T05:21:19;12.20;;;2.60;;
38805;SDS011;25635;51.146;17.162;2023-02-01T05:23:45;13.30;;;3.40;;
38805;SDS011;25635;51.146;17.162;2023-02-01T05:26:30;13.10;;;2.80;;
38805;SDS011;25635;51.146;17.162;2023-02-01T05:28:56;11.50;;;2.90;;
38805;SDS011;25635;51.146;17.162;2023-02-01T05:31:23;11.70;;;2.20;;
38805;SDS011;25635;51.146;17.162;2023-02-01T05:33:49;11.20;;;2.50;;
38805;SDS011;25635;51.146;17.162;2023-02-01T05:36:16;12.00;;;2.60;;
38805;SDS011;25635;51.146;17.162;2023-02-01T05:38:42;10.40;;;2.00;;
38805;SDS011;25635;51.146;17.162;2023-02-01T05:41:08;10.70;;;2.50;;
38805;SDS011;25635;51.146;17.162;2023-02-01T05:43:34;13.70;;;3.00;;
38805;SDS011;25635;51.146;17.162;2023-02-01T05:46:00;10.80;;;2.60;;
38805;SDS011;25635;51.146;17.162;2023-02-01T05:48:26;7.00;;;2.20;;
38805;SDS011;25635;51.146;17.162;2023-02-01T05:50:52;10.20;;;2.50;;
38805;SDS011;25635;51.146;17.162;2023-02-01T05:53:19;13.10;;;2.50;;
38805;SDS011;25635;51.146;17.162;2023-02-01T05:55:45;10.00;;;2.90;;
38805;SDS011;25635;51.146;17.162;2023-02-01T05:58:11;8.80;;;2.40;;
38805;SDS011;25635;51.146;17.162;2023-02-01T06:00:38;12.00;;;2.40;;
38805;SDS011;25635;51.146;17.162;2023-02-01T06:03:04;10.30;;;2.70;;
38805;SDS011;25635;51.146;17.162;2023-02-01T06:05:31;10.00;;;2.70;;
38805;SDS011;25635;51.146;17.162;2023-02-01T06:07:57;9.40;;;2.20;;
38805;SDS011;25635;51.146;17.162;2023-02-01T06:10:24;12.20;;;2.10;;
38805;SDS011;25635;51.146;17.162;2023-02-01T06:12:50;10.60;;;2.60;;
38805;SDS011;25635;51.146;17.162;2023-02-01T06:15:17;12.40;;;2.20;;
38805;SDS011;25635;51.146;17.162;2023-02-01T06:17:44;12.20;;;2.80;;
38805;SDS011;25635;51.146;17.162;2023-02-01T06:20:12;10.60;;;2.60;;
38805;SDS011;25635;51.146;17.162;2023-02-01T06:22:40;12.20;;;2.90;;
38805;SDS011;25635;51.146;17.162;2023-02-01T06:25:07;9.40;;;2.40;;
38805;SDS011;25635;51.146;17.162;2023-02-01T06:27:35;13.00;;;2.20;;
38805;SDS011;25635;51.146;17.162;2023-02-01T06:30:02;14.40;;;2.80;;
38805;SDS011;25635;51.146;17.162;2023-02-01T06:32:30;11.20;;;2.50;;
38805;SDS011;25635;51.146;17.162;2023-02-01T06:34:56;10.20;;;2.30;;
38805;SDS011;25635;51.146;17.162;2023-02-01T06:37:22;8.20;;;2.50;;
38805;SDS011;25635;51.146;17.162;2023-02-01T06:39:54;12.50;;;2.80;;
38805;SDS011;25635;51.146;17.162;2023-02-01T06:42:21;12.60;;;2.90;;
38805;SDS011;25635;51.146;17.162;2023-02-01T06:44:47;11.80;;;2.70;;
38805;SDS011;25635;51.146;17.162;2023-02-01T06:47:13;10.90;;;2.00;;
38805;SDS011;25635;51.146;17.162;2023-02-01T06:49:39;14.40;;;3.10;;
38805;SDS011;25635;51.146;17.162;2023-02-01T06:52:06;8.70;;;2.50;;
38805;SDS011;25635;51.146;17.162;2023-02-01T06:54:32;16.00;;;3.10;;
38805;SDS011;25635;51.146;17.162;2023-02-01T06:56:59;9.90;;;2.20;;
38805;SDS011;25635;51.146;17.162;2023-02-01T06:59:25;14.10;;;2.90;;
38805;SDS011;25635;51.146;17.162;2023-02-01T07:01:51;10.60;;;2.10;;
38805;SDS011;25635;51.146;17.162;2023-02-01T07:04:17;11.10;;;2.50;;
38805;SDS011;25635;51.146;17.162;2023-02-01T07:06:44;12.10;;;2.80;;
38805;SDS011;25635;51.146;17.162;2023-02-01T07:09:10;14.70;;;2.80;;
38805;SDS011;25635;51.146;17.162;2023-02-01T07:11:37;14.20;;;2.80;;
38805;SDS011;25635;51.146;17.162;2023-02-01T07:14:06;9.60;;;2.70;;
38805;SDS011;25635;51.146;17.162;2023-02-01T07:16:32;7.80;;;2.60;;
38805;SDS011;25635;51.146;17.162;2023-02-01T07:18:58;12.90;;;2.90;;
38805;SDS011;25635;51.146;17.162;2023-02-01T07:21:25;13.00;;;2.90;;
38805;SDS011;25635;51.146;17.162;2023-02-01T07:23:54;11.70;;;2.80;;
38805;SDS011;25635;51.146;17.162;2023-02-01T07:26:21;13.30;;;2.70;;
38805;SDS011;25635;51.146;17.162;2023-02-01T07:28:47;9.00;;;2.30;;
38805;SDS011;25635;51.146;17.162;2023-02-01T07:31:14;12.40;;;2.90;;
38805;SDS011;25635;51.146;17.162;2023-02-01T07:33:44;11.20;;;2.50;;
38805;SDS011;25635;51.146;17.162;2023-02-01T07:36:23;12.00;;;2.50;;
38805;SDS011;25635;51.146;17.162;2023-02-01T07:38:53;14.20;;;3.10;;
38805;SDS011;25635;51.146;17.162;2023-02-01T07:41:20;11.40;;;2.70;;
38805;SDS011;25635;51.146;17.162;2023-02-01T07:43:46;11.10;;;2.50;;
38805;SDS011;25635;51.146;17.162;2023-02-01T07:46:13;7.90;;;2.20;;
38805;SDS011;25635;51.146;17.162;2023-02-01T07:48:40;13.00;;;2.90;;
38805;SDS011;25635;51.146;17.162;2023-02-01T07:51:11;10.00;;;2.50;;
38805;SDS011;25635;51.146;17.162;2023-02-01T07:53:39;11.70;;;3.20;;
38805;SDS011;25635;51.146;17.162;2023-02-01T07:56:14;10.40;;;2.40;;
38805;SDS011;25635;51.146;17.162;2023-02-01T07:58:41;12.90;;;2.80;;
38805;SDS011;25635;51.146;17.162;2023-02-01T08:01:13;11.50;;;2.80;;
38805;SDS011;25635;51.146;17.162;2023-02-01T08:03:46;9.60;;;2.30;;
38805;SDS011;25635;51.146;17.162;2023-02-01T08:06:20;12.10;;;2.60;;
38805;SDS011;25635;51.146;17.162;2023-02-01T08:08:48;11.10;;;3.00;;
38805;SDS011;25635;51.146;17.162;2023-02-01T08:11:15;9.10;;;2.20;;
38805;SDS011;25635;51.146;17.162;2023-02-01T08:13:42;10.10;;;2.30;;
38805;SDS011;25635;51.146;17.162;2023-02-01T08:16:10;10.30;;;2.90;;
38805;SDS011;25635;51.146;17.162;2023-02-01T08:18:37;10.10;;;2.40;;
38805;SDS011;25635;51.146;17.162;2023-02-01T08:21:08;10.40;;;3.00;;
38805;SDS011;25635;51.146;17.162;2023-02-01T08:23:37;9.80;;;2.60;;
38805;SDS011;25635;51.146;17.162;2023-02-01T08:28:46;12.30;;;3.00;;
38805;SDS011;25635;51.146;17.162;2023-02-01T08:31:16;12.10;;;2.80;;
38805;SDS011;25635;51.146;17.162;2023-02-01T08:33:43;14.50;;;3.30;;
38805;SDS011;25635;51.146;17.162;2023-02-01T08:36:13;11.00;;;3.00;;
38805;SDS011;25635;51.146;17.162;2023-02-01T08:38:40;9.10;;;2.70;;
38805;SDS011;25635;51.146;17.162;2023-02-01T08:41:10;9.80;;;2.60;;
38805;SDS011;25635;51.146;17.162;2023-02-01T08:43:38;15.50;;;3.00;;
38805;SDS011;25635;51.146;17.162;2023-02-01T08:46:04;10.00;;;2.50;;
38805;SDS011;25635;51.146;17.162;2023-02-01T08:48:32;13.10;;;3.20;;
38805;SDS011;25635;51.146;17.162;2023-02-01T08:51:02;12.10;;;2.80;;
38805;SDS011;25635;51.146;17.162;2023-02-01T08:53:30;11.50;;;3.20;;
38805;SDS011;25635;51.146;17.162;2023-02-01T08:55:56;8.40;;;2.90;;
38805;SDS011;25635;51.146;17.162;2023-02-01T08:58:22;12.40;;;3.10;;
38805;SDS011;25635;51.146;17.162;2023-02-01T09:00:48;9.00;;;2.70;;
38805;SDS011;25635;51.146;17.162;2023-02-01T09:03:15;10.50;;;2.60;;
38805;SDS011;25635;51.146;17.162;2023-02-01T09:05:41;8.80;;;2.00;;
38805;SDS011;25635;51.146;17.162;2023-02-01T09:08:07;14.50;;;2.80;;
38805;SDS011;25635;51.146;17.162;2023-02-01T09:10:34;8.80;;;2.30;;
38805;SDS011;25635;51.146;17.162;2023-02-01T09:13:00;14.90;;;3.10;;
38805;SDS011;25635;51.146;17.162;2023-02-01T09:15:27;13.60;;;3.10;;
38805;SDS011;25635;51.146;17.162;2023-02-01T09:17:53;14.70;;;2.60;;
38805;SDS011;25635;51.146;17.162;2023-02-01T09:20:19;12.00;;;2.80;;
38805;SDS011;25635;51.146;17.162;2023-02-01T09:22:52;9.00;;;2.40;;
38805;SDS011;25635;51.146;17.162;2023-02-01T09:25:21;10.30;;;2.60;;
38805;SDS011;25635;51.146;17.162;2023-02-01T09:27:47;11.00;;;3.20;;
38805;SDS011;25635;51.146;17.162;2023-02-01T09:30:13;11.10;;;2.70;;
38805;SDS011;25635;51.146;17.162;2023-02-01T09:32:39;10.40;;;3.10;;
38805;SDS011;25635;51.146;17.162;2023-02-01T09:35:05;11.90;;;2.80;;
38805;SDS011;25635;51.146;17.162;2023-02-01T09:37:31;11.20;;;2.90;;
38805;SDS011;25635;51.146;17.162;2023-02-01T09:39:58;12.90;;;2.80;;
38805;SDS011;25635;51.146;17.162;2023-02-01T09:45:10;8.30;;;2.20;;
38805;SDS011;25635;51.146;17.162;2023-02-01T09:47:42;8.60;;;2.40;;
38805;SDS011;25635;51.146;17.162;2023-02-01T09:50:16;14.70;;;2.60;;
38805;SDS011;25635;51.146;17.162;2023-02-01T09:52:54;10.70;;;3.00;;
38805;SDS011;25635;51.146;17.162;2023-02-01T09:55:45;8.20;;;2.30;;
38805;SDS011;25635;51.146;17.162;2023-02-01T09:58:16;7.50;;;2.40;;
38805;SDS011;25635;51.146;17.162;2023-02-01T10:00:58;7.10;;;2.00;;
38805;SDS011;25635;51.146;17.162;2023-02-01T10:03:27;5.80;;;2.00;;
38805;SDS011;25635;51.146;17.162;2023-02-01T10:06:16;8.30;;;2.20;;
38805;SDS011;25635;51.146;17.162;2023-02-01T10:11:47;9.50;;;2.90;;
38805;SDS011;25635;51.146;17.162;2023-02-01T10:22:23;5.90;;;2.20;;
38805;SDS011;25635;51.146;17.162;2023-02-01T10:25:04;11.00;;;3.90;;
38805;SDS011;25635;51.146;17.162;2023-02-01T10:27:45;8.80;;;3.20;;
38805;SDS011;25635;51.146;17.162;2023-02-01T10:32:42;10.50;;;4.20;;
38805;SDS011;25635;51.146;17.162;2023-02-01T10:35:12;6.70;;;3.10;;
38805;SDS011;25635;51.146;17.162;2023-02-01T10:37:43;9.70;;;2.80;;
38805;SDS011;25635;51.146;17.162;2023-02-01T10:42:47;7.80;;;2.00;;
38805;SDS011;25635;51.146;17.162;2023-02-01T10:45:17;6.50;;;2.30;;
38805;SDS011;25635;51.146;17.162;2023-02-01T10:47:46;8.80;;;2.80;;
38805;SDS011;25635;51.146;17.162;2023-02-01T10:53:06;9.10;;;2.80;;
38805;SDS011;25635;51.146;17.162;2023-02-01T10:55:40;8.40;;;3.10;;
38805;SDS011;25635;51.146;17.162;2023-02-01T10:58:47;12.00;;;4.00;;
38805;SDS011;25635;51.146;17.162;2023-02-01T11:01:21;13.70;;;5.30;;
38805;SDS011;25635;51.146;17.162;2023-02-01T11:03:52;8.40;;;3.40;;
38805;SDS011;25635;51.146;17.162;2023-02-01T11:09:01;9.90;;;3.20;;
38805;SDS011;25635;51.146;17.162;2023-02-01T11:11:52;11.20;;;3.40;;
38805;SDS011;25635;51.146;17.162;2023-02-01T11:16:53;7.80;;;3.40;;
38805;SDS011;25635;51.146;17.162;2023-02-01T11:19:22;9.90;;;3.40;;
38805;SDS011;25635;51.146;17.162;2023-02-01T11:21:49;11.10;;;3.30;;
38805;SDS011;25635;51.146;17.162;2023-02-01T11:26:56;9.50;;;3.40;;
38805;SDS011;25635;51.146;17.162;2023-02-01T11:29:23;9.50;;;3.50;;
38805;SDS011;25635;51.146;17.162;2023-02-01T11:31:56;6.60;;;3.00;;
38805;SDS011;25635;51.146;17.162;2023-02-01T11:34:25;8.10;;;3.10;;
38805;SDS011;25635;51.146;17.162;2023-02-01T11:36:55;8.60;;;2.50;;
38805;SDS011;25635;51.146;17.162;2023-02-01T11:39:28;5.70;;;2.00;;
38805;SDS011;25635;51.146;17.162;2023-02-01T11:42:00;7.70;;;2.80;;
38805;SDS011;25635;51.146;17.162;2023-02-01T11:49:53;6.90;;;2.40;;
38805;SDS011;25635;51.146;17.162;2023-02-01T11:55:50;5.90;;;2.20;;
38805;SDS011;25635;51.146;17.162;2023-02-01T12:10:12;6.90;;;2.20;;
38805;SDS011;25635;51.146;17.162;2023-02-01T12:13:09;6.30;;;2.20;;
38805;SDS011;25635;51.146;17.162;2023-02-01T12:23:59;5.30;;;2.40;;
38805;SDS011;25635;51.146;17.162;2023-02-01T12:26:48;11.70;;;2.70;;
38805;SDS011;25635;51.146;17.162;2023-02-01T12:43:22;5.70;;;2.40;;
38805;SDS011;25635;51.146;17.162;2023-02-01T12:46:43;6.00;;;2.50;;
38805;SDS011;25635;51.146;17.162;2023-02-01T12:48:55;5.20;;;2.10;;
38805;SDS011;25635;51.146;17.162;2023-02-01T12:51:27;4.80;;;2.20;;
38805;SDS011;25635;51.146;17.162;2023-02-01T12:59:42;5.50;;;2.20;;
38805;SDS011;25635;51.146;17.162;2023-02-01T13:02:21;4.90;;;2.00;;
38805;SDS011;25635;51.146;17.162;2023-02-01T13:05:12;5.10;;;2.20;;
38805;SDS011;25635;51.146;17.162;2023-02-01T13:07:53;5.10;;;1.80;;
38805;SDS011;25635;51.146;17.162;2023-02-01T13:10:54;4.90;;;2.10;;
38805;SDS011;25635;51.146;17.162;2023-02-01T13:13:22;6.30;;;2.40;;
38805;SDS011;25635;51.146;17.162;2023-02-01T13:15:57;5.30;;;2.20;;
38805;SDS011;25635;51.146;17.162;2023-02-01T13:18:34;5.50;;;1.90;;
38805;SDS011;25635;51.146;17.162;2023-02-01T13:21:24;7.50;;;2.20;;
38805;SDS011;25635;51.146;17.162;2023-02-01T13:23:53;4.90;;;1.90;;
38805;SDS011;25635;51.146;17.162;2023-02-01T13:26:19;5.20;;;2.00;;
38805;SDS011;25635;51.146;17.162;2023-02-01T13:28:46;6.30;;;2.00;;
38805;SDS011;25635;51.146;17.162;2023-02-01T13:31:35;3.30;;;1.40;;
38805;SDS011;25635;51.146;17.162;2023-02-01T13:43:19;5.00;;;1.90;;
38805;SDS011;25635;51.146;17.162;2023-02-01T13:45:51;6.00;;;2.40;;
38805;SDS011;25635;51.146;17.162;2023-02-01T13:48:33;5.40;;;1.70;;
38805;SDS011;25635;51.146;17.162;2023-02-01T13:51:13;4.60;;;1.90;;
38805;SDS011;25635;51.146;17.162;2023-02-01T13:53:47;5.60;;;1.70;;
38805;SDS011;25635;51.146;17.162;2023-02-01T13:56:18;5.10;;;1.70;;
38805;SDS011;25635;51.146;17.162;2023-02-01T13:58:48;7.10;;;2.20;;
38805;SDS011;25635;51.146;17.162;2023-02-01T14:03:53;5.20;;;1.70;;
38805;SDS011;25635;51.146;17.162;2023-02-01T14:16:39;9.00;;;2.40;;
38805;SDS011;25635;51.146;17.162;2023-02-01T14:19:25;5.50;;;2.00;;
38805;SDS011;25635;51.146;17.162;2023-02-01T14:21:54;5.60;;;2.00;;
38805;SDS011;25635;51.146;17.162;2023-02-01T14:24:31;5.00;;;2.10;;
38805;SDS011;25635;51.146;17.162;2023-02-01T14:26:59;7.20;;;2.10;;
38805;SDS011;25635;51.146;17.162;2023-02-01T14:32:15;6.60;;;2.40;;
38805;SDS011;25635;51.146;17.162;2023-02-01T14:34:53;6.90;;;2.30;;
38805;SDS011;25635;51.146;17.162;2023-02-01T14:39:58;4.30;;;1.50;;
38805;SDS011;25635;51.146;17.162;2023-02-01T14:47:51;7.40;;;2.30;;
38805;SDS011;25635;51.146;17.162;2023-02-01T14:55:43;5.50;;;2.40;;
38805;SDS011;25635;51.146;17.162;2023-02-01T15:00:55;8.80;;;4.50;;
38805;SDS011;25635;51.146;17.162;2023-02-01T15:06:04;9.70;;;3.40;;
38805;SDS011;25635;51.146;17.162;2023-02-01T15:08:42;9.80;;;3.30;;
38805;SDS011;25635;51.146;17.162;2023-02-01T15:11:13;6.60;;;3.30;;
38805;SDS011;25635;51.146;17.162;2023-02-01T15:13:47;8.80;;;3.10;;
38805;SDS011;25635;51.146;17.162;2023-02-01T15:16:16;10.60;;;3.00;;
38805;SDS011;25635;51.146;17.162;2023-02-01T15:18:43;11.40;;;3.30;;
38805;SDS011;25635;51.146;17.162;2023-02-01T15:21:15;7.70;;;2.80;;
38805;SDS011;25635;51.146;17.162;2023-02-01T15:23:44;6.40;;;2.40;;
38805;SDS011;25635;51.146;17.162;2023-02-01T15:26:27;6.50;;;2.50;;
38805;SDS011;25635;51.146;17.162;2023-02-01T15:28:56;6.70;;;2.80;;
38805;SDS011;25635;51.146;17.162;2023-02-01T15:31:37;6.60;;;2.70;;
38805;SDS011;25635;51.146;17.162;2023-02-01T15:34:06;8.90;;;2.80;;
38805;SDS011;25635;51.146;17.162;2023-02-01T15:36:32;8.20;;;3.00;;
38805;SDS011;25635;51.146;17.162;2023-02-01T15:41:53;7.40;;;2.60;;
38805;SDS011;25635;51.146;17.162;2023-02-01T15:44:39;7.70;;;2.60;;
38805;SDS011;25635;51.146;17.162;2023-02-01T15:47:11;7.20;;;3.20;;
38805;SDS011;25635;51.146;17.162;2023-02-01T15:49:41;8.70;;;3.10;;
38805;SDS011;25635;51.146;17.162;2023-02-01T15:52:21;13.00;;;4.50;;
38805;SDS011;25635;51.146;17.162;2023-02-01T15:54:57;9.20;;;3.70;;
38805;SDS011;25635;51.146;17.162;2023-02-01T15:57:33;9.50;;;3.20;;
38805;SDS011;25635;51.146;17.162;2023-02-01T16:00:23;9.50;;;3.10;;
38805;SDS011;25635;51.146;17.162;2023-02-01T16:02:53;8.60;;;3.60;;
38805;SDS011;25635;51.146;17.162;2023-02-01T16:08:03;10.80;;;3.80;;
38805;SDS011;25635;51.146;17.162;2023-02-01T16:10:43;11.70;;;3.80;;
38805;SDS011;25635;51.146;17.162;2023-02-01T16:13:11;9.60;;;3.80;;
38805;SDS011;25635;51.146;17.162;2023-02-01T16:15:39;15.40;;;4.40;;
38805;SDS011;25635;51.146;17.162;2023-02-01T16:18:06;10.30;;;4.30;;
38805;SDS011;25635;51.146;17.162;2023-02-01T16:20:36;8.30;;;3.60;;
38805;SDS011;25635;51.146;17.162;2023-02-01T16:23:04;8.70;;;3.80;;
38805;SDS011;25635;51.146;17.162;2023-02-01T16:25:32;8.50;;;3.50;;
38805;SDS011;25635;51.146;17.162;2023-02-01T16:27:58;10.70;;;4.20;;
38805;SDS011;25635;51.146;17.162;2023-02-01T16:30:24;7.70;;;3.50;;
38805;SDS011;25635;51.146;17.162;2023-02-01T16:32:56;8.70;;;4.10;;
38805;SDS011;25635;51.146;17.162;2023-02-01T16:35:34;7.60;;;3.10;;
38805;SDS011;25635;51.146;17.162;2023-02-01T16:40:34;5.80;;;2.60;;
38805;SDS011;25635;51.146;17.162;2023-02-01T16:43:00;9.70;;;3.90;;
38805;SDS011;25635;51.146;17.162;2023-02-01T16:45:26;9.30;;;3.30;;
38805;SDS011;25635;51.146;17.162;2023-02-01T16:47:54;7.20;;;2.60;;
38805;SDS011;25635;51.146;17.162;2023-02-01T16:50:23;10.80;;;4.00;;
38805;SDS011;25635;51.146;17.162;2023-02-01T16:52:51;10.10;;;4.50;;
38805;SDS011;25635;51.146;17.162;2023-02-01T16:55:19;10.80;;;4.00;;
38805;SDS011;25635;51.146;17.162;2023-02-01T16:57:50;9.80;;;4.50;;
38805;SDS011;25635;51.146;17.162;2023-02-01T17:00:17;8.50;;;4.00;;
38805;SDS011;25635;51.146;17.162;2023-02-01T17:02:45;9.30;;;3.70;;
38805;SDS011;25635;51.146;17.162;2023-02-01T17:05:12;10.00;;;4.30;;
38805;SDS011;25635;51.146;17.162;2023-02-01T17:07:38;20.60;;;8.30;;
38805;SDS011;25635;51.146;17.162;2023-02-01T17:10:08;9.90;;;4.40;;
38805;SDS011;25635;51.146;17.162;2023-02-01T17:12:51;9.90;;;4.70;;
38805;SDS011;25635;51.146;17.162;2023-02-01T17:15:20;9.20;;;4.10;;
38805;SDS011;25635;51.146;17.162;2023-02-01T17:17:47;10.20;;;4.20;;
38805;SDS011;25635;51.146;17.162;2023-02-01T17:20:18;9.40;;;4.90;;
38805;SDS011;25635;51.146;17.162;2023-02-01T17:22:46;12.90;;;5.30;;
38805;SDS011;25635;51.146;17.162;2023-02-01T17:25:14;13.10;;;5.00;;
38805;SDS011;25635;51.146;17.162;2023-02-01T17:27:41;10.80;;;5.70;;